Terminal Aerodrome Forecast
Issued by NWS Raleigh/Durham, NC

Home | Current Version | Previous Version | Text Only | Print | Product List | Glossary On
Versions: 1 2 3 4 5 6 7 8 9 10 11 12 13 14 15 16 17 18 19 20 21 22 23 24 25 26 27 28 29 30 31 32 33 34 35 36 37 38 39 40 41 42 43 44 45 46
000
FTUS42 KRAH 020003 AAA
TAFFAY
TAF AMD
KFAY 020003Z 0200/0224 35009KT P6SM OVC005
      TEMPO 0202/0206 3SM -SHRA SCT006 OVC012
     FM021300 VRB05KT P6SM VCSH BKN012 OVC022
     FM021700 VRB05G15KT 3SM SHRA BKN025 PROB30 0217/0221 TSRA
      BKN025CB=

USA.gov is the U.S. government's official web portal to all federal, state and local government web resources and services.